You are not logged in, Click here to log in
ICAO: OMDB Country: 阿拉伯聯合大公國杜拜
Latitude: 25.2532 Longitude: 55.3657
Total Arrivals: 33 Total Departures: 31
Latest Arrival: EK367 (RCTP-OMDB)Meng Sheng. Chan Latest Departure: 5BLH25 (OMDB-EDDF)Meng Sheng. Chan
Scenery:
METAR : OMDB 231100Z 01013KT 9999 FEW040 FEW045TCU 41/20 Q1000 WS ALL RWY TEMPO VRB20G30KT 3000 BLDU FEW040CB

迪拜國際機場DXB